sensor_id;sensor_type;location;lat;lon;timestamp;temperature;humidity
47618;DHT22;33336;36.728;-4.414;2023-08-24T00:03:32;30.50;96.80
47618;DHT22;33336;36.728;-4.414;2023-08-24T00:08:35;29.70;98.10
47618;DHT22;33336;36.728;-4.414;2023-08-24T00:13:40;30.20;97.10
47618;DHT22;33336;36.728;-4.414;2023-08-24T00:18:43;30.30;96.70
47618;DHT22;33336;36.728;-4.414;2023-08-24T00:23:46;30.00;97.00
47618;DHT22;33336;36.728;-4.414;2023-08-24T00:28:50;30.40;96.70
47618;DHT22;33336;36.728;-4.414;2023-08-24T00:33:53;30.20;96.40
47618;DHT22;33336;36.728;-4.414;2023-08-24T00:38:56;30.10;96.60
47618;DHT22;33336;36.728;-4.414;2023-08-24T00:44:02;30.20;96.40
47618;DHT22;33336;36.728;-4.414;2023-08-24T00:49:04;30.00;96.50
47618;DHT22;33336;36.728;-4.414;2023-08-24T00:54:08;29.80;96.70
47618;DHT22;33336;36.728;-4.414;2023-08-24T00:59:13;29.90;96.50
47618;DHT22;33336;36.728;-4.414;2023-08-24T01:04:16;29.80;96.50
47618;DHT22;33336;36.728;-4.414;2023-08-24T01:09:20;29.90;96.40
47618;DHT22;33336;36.728;-4.414;2023-08-24T01:14:34;29.90;96.50
47618;DHT22;33336;36.728;-4.414;2023-08-24T01:19:41;30.00;96.30
47618;DHT22;33336;36.728;-4.414;2023-08-24T01:24:49;30.10;96.20
47618;DHT22;33336;36.728;-4.414;2023-08-24T01:29:56;29.80;96.50
47618;DHT22;33336;36.728;-4.414;2023-08-24T01:35:01;29.80;96.40
47618;DHT22;33336;36.728;-4.414;2023-08-24T01:40:06;30.00;96.20
47618;DHT22;33336;36.728;-4.414;2023-08-24T01:45:12;29.90;96.20
47618;DHT22;33336;36.728;-4.414;2023-08-24T01:50:15;30.00;95.70
47618;DHT22;33336;36.728;-4.414;2023-08-24T01:55:19;29.90;95.60
47618;DHT22;33336;36.728;-4.414;2023-08-24T02:00:24;30.00;95.50
47618;DHT22;33336;36.728;-4.414;2023-08-24T02:05:26;29.70;95.60
47618;DHT22;33336;36.728;-4.414;2023-08-24T02:10:30;29.50;95.80
47618;DHT22;33336;36.728;-4.414;2023-08-24T02:15:34;29.20;96.20
47618;DHT22;33336;36.728;-4.414;2023-08-24T02:20:37;29.40;96.00
47618;DHT22;33336;36.728;-4.414;2023-08-24T02:25:42;29.60;95.80
47618;DHT22;33336;36.728;-4.414;2023-08-24T02:30:48;29.60;95.50
47618;DHT22;33336;36.728;-4.414;2023-08-24T02:35:50;29.60;95.40
47618;DHT22;33336;36.728;-4.414;2023-08-24T02:41:01;28.80;95.90
47618;DHT22;33336;36.728;-4.414;2023-08-24T02:46:06;28.60;96.30
47618;DHT22;33336;36.728;-4.414;2023-08-24T02:51:10;28.60;96.30
47618;DHT22;33336;36.728;-4.414;2023-08-24T02:56:13;28.60;96.60
47618;DHT22;33336;36.728;-4.414;2023-08-24T03:01:18;28.70;96.20
47618;DHT22;33336;36.728;-4.414;2023-08-24T03:06:20;28.20;96.90
47618;DHT22;33336;36.728;-4.414;2023-08-24T03:11:25;28.60;96.50
47618;DHT22;33336;36.728;-4.414;2023-08-24T03:16:29;29.10;96.00
47618;DHT22;33336;36.728;-4.414;2023-08-24T03:21:32;29.00;96.00
47618;DHT22;33336;36.728;-4.414;2023-08-24T03:26:35;29.20;95.90
47618;DHT22;33336;36.728;-4.414;2023-08-24T03:31:41;28.80;96.20
47618;DHT22;33336;36.728;-4.414;2023-08-24T03:36:43;29.10;96.00
47618;DHT22;33336;36.728;-4.414;2023-08-24T03:41:47;29.20;96.00
47618;DHT22;33336;36.728;-4.414;2023-08-24T03:46:51;29.20;95.90
47618;DHT22;33336;36.728;-4.414;2023-08-24T03:51:55;29.20;95.80
47618;DHT22;33336;36.728;-4.414;2023-08-24T03:56:58;29.20;95.80
47618;DHT22;33336;36.728;-4.414;2023-08-24T04:02:03;29.20;95.50
47618;DHT22;33336;36.728;-4.414;2023-08-24T04:07:06;28.60;95.90
47618;DHT22;33336;36.728;-4.414;2023-08-24T04:12:09;28.60;96.10
47618;DHT22;33336;36.728;-4.414;2023-08-24T04:17:13;28.70;96.10
47618;DHT22;33336;36.728;-4.414;2023-08-24T04:22:16;28.40;96.10
47618;DHT22;33336;36.728;-4.414;2023-08-24T04:27:19;27.70;96.80
47618;DHT22;33336;36.728;-4.414;2023-08-24T04:32:25;28.20;96.60
47618;DHT22;33336;36.728;-4.414;2023-08-24T04:37:27;28.60;96.00
47618;DHT22;33336;36.728;-4.414;2023-08-24T04:42:31;28.10;95.70
47618;DHT22;33336;36.728;-4.414;2023-08-24T04:47:35;28.30;95.40
47618;DHT22;33336;36.728;-4.414;2023-08-24T04:52:38;28.50;95.30
47618;DHT22;33336;36.728;-4.414;2023-08-24T04:57:42;28.40;95.30
47618;DHT22;33336;36.728;-4.414;2023-08-24T05:02:47;28.60;95.10
47618;DHT22;33336;36.728;-4.414;2023-08-24T05:07:49;28.70;94.90
47618;DHT22;33336;36.728;-4.414;2023-08-24T05:12:53;27.90;95.30
47618;DHT22;33336;36.728;-4.414;2023-08-24T05:17:57;28.10;94.70
47618;DHT22;33336;36.728;-4.414;2023-08-24T05:23:00;28.20;94.30
47618;DHT22;33336;36.728;-4.414;2023-08-24T05:28:03;27.80;94.50
47618;DHT22;33336;36.728;-4.414;2023-08-24T05:33:08;27.90;94.30
47618;DHT22;33336;36.728;-4.414;2023-08-24T05:38:10;28.10;94.20
47618;DHT22;33336;36.728;-4.414;2023-08-24T05:43:13;27.50;94.50
47618;DHT22;33336;36.728;-4.414;2023-08-24T05:48:18;28.00;94.20
47618;DHT22;33336;36.728;-4.414;2023-08-24T05:53:21;28.10;93.90
47618;DHT22;33336;36.728;-4.414;2023-08-24T05:58:24;28.20;93.50
47618;DHT22;33336;36.728;-4.414;2023-08-24T06:03:29;28.40;93.50
47618;DHT22;33336;36.728;-4.414;2023-08-24T06:08:32;28.20;93.40
47618;DHT22;33336;36.728;-4.414;2023-08-24T06:13:34;28.20;93.10
47618;DHT22;33336;36.728;-4.414;2023-08-24T06:18:39;28.50;92.90
47618;DHT22;33336;36.728;-4.414;2023-08-24T06:23:42;28.60;92.70
47618;DHT22;33336;36.728;-4.414;2023-08-24T06:28:46;28.00;93.10
47618;DHT22;33336;36.728;-4.414;2023-08-24T06:33:51;28.00;92.80
47618;DHT22;33336;36.728;-4.414;2023-08-24T06:38:54;28.00;92.80
47618;DHT22;33336;36.728;-4.414;2023-08-24T06:43:57;27.90;92.80
47618;DHT22;33336;36.728;-4.414;2023-08-24T06:49:01;28.10;92.60
47618;DHT22;33336;36.728;-4.414;2023-08-24T06:54:04;28.30;92.50
47618;DHT22;33336;36.728;-4.414;2023-08-24T06:59:07;28.80;92.20
47618;DHT22;33336;36.728;-4.414;2023-08-24T07:04:13;29.00;91.90
47618;DHT22;33336;36.728;-4.414;2023-08-24T07:09:15;29.30;91.70
47618;DHT22;33336;36.728;-4.414;2023-08-24T07:14:19;29.50;91.60
47618;DHT22;33336;36.728;-4.414;2023-08-24T07:19:23;29.40;91.30
47618;DHT22;33336;36.728;-4.414;2023-08-24T07:24:27;29.40;91.40
47618;DHT22;33336;36.728;-4.414;2023-08-24T07:29:31;29.00;91.30
47618;DHT22;33336;36.728;-4.414;2023-08-24T07:34:36;28.60;91.50
47618;DHT22;33336;36.728;-4.414;2023-08-24T07:39:39;29.30;91.50
47618;DHT22;33336;36.728;-4.414;2023-08-24T07:44:42;29.50;91.30
47618;DHT22;33336;36.728;-4.414;2023-08-24T07:49:46;30.10;91.00
47618;DHT22;33336;36.728;-4.414;2023-08-24T07:54:50;30.40;90.90
47618;DHT22;33336;36.728;-4.414;2023-08-24T07:59:53;30.70;90.90
47618;DHT22;33336;36.728;-4.414;2023-08-24T08:04:58;31.00;90.80
47618;DHT22;33336;36.728;-4.414;2023-08-24T08:10:01;31.20;90.70
47618;DHT22;33336;36.728;-4.414;2023-08-24T08:15:04;30.70;91.40
47618;DHT22;33336;36.728;-4.414;2023-08-24T08:20:09;30.80;92.00
47618;DHT22;33336;36.728;-4.414;2023-08-24T08:25:13;31.10;92.10
47618;DHT22;33336;36.728;-4.414;2023-08-24T08:30:19;31.00;92.30
47618;DHT22;33336;36.728;-4.414;2023-08-24T08:35:24;31.20;92.40
47618;DHT22;33336;36.728;-4.414;2023-08-24T08:40:30;31.60;92.30
47618;DHT22;33336;36.728;-4.414;2023-08-24T08:45:33;30.90;92.50
47618;DHT22;33336;36.728;-4.414;2023-08-24T08:50:37;30.60;93.30
47618;DHT22;33336;36.728;-4.414;2023-08-24T08:55:40;30.60;93.50
47618;DHT22;33336;36.728;-4.414;2023-08-24T09:00:43;31.00;93.00
47618;DHT22;33336;36.728;-4.414;2023-08-24T09:05:48;30.80;93.50
47618;DHT22;33336;36.728;-4.414;2023-08-24T09:10:50;31.00;93.80
47618;DHT22;33336;36.728;-4.414;2023-08-24T09:15:53;31.30;93.20
47618;DHT22;33336;36.728;-4.414;2023-08-24T09:20:57;31.20;93.70
47618;DHT22;33336;36.728;-4.414;2023-08-24T09:26:01;30.40;95.10
47618;DHT22;33336;36.728;-4.414;2023-08-24T09:31:05;30.20;95.50
47618;DHT22;33336;36.728;-4.414;2023-08-24T09:36:14;30.30;95.70
47618;DHT22;33336;36.728;-4.414;2023-08-24T09:41:17;30.60;96.00
47618;DHT22;33336;36.728;-4.414;2023-08-24T09:46:20;30.80;96.10
47618;DHT22;33336;36.728;-4.414;2023-08-24T09:51:28;30.70;96.50
47618;DHT22;33336;36.728;-4.414;2023-08-24T09:56:35;31.30;96.60
47618;DHT22;33336;36.728;-4.414;2023-08-24T10:01:38;31.50;97.60
47618;DHT22;33336;36.728;-4.414;2023-08-24T10:06:49;30.80;98.70
47618;DHT22;33336;36.728;-4.414;2023-08-24T10:11:56;30.80;98.90
47618;DHT22;33336;36.728;-4.414;2023-08-24T10:17:11;30.80;99.30
47618;DHT22;33336;36.728;-4.414;2023-08-24T10:22:15;31.10;99.80
47618;DHT22;33336;36.728;-4.414;2023-08-24T10:27:18;31.40;99.70
47618;DHT22;33336;36.728;-4.414;2023-08-24T10:32:23;31.40;99.90
47618;DHT22;33336;36.728;-4.414;2023-08-24T10:37:27;31.30;99.90
47618;DHT22;33336;36.728;-4.414;2023-08-24T10:42:43;31.80;99.90
47618;DHT22;33336;36.728;-4.414;2023-08-24T10:47:52;30.60;99.90
47618;DHT22;33336;36.728;-4.414;2023-08-24T10:52:55;30.40;99.90
47618;DHT22;33336;36.728;-4.414;2023-08-24T10:57:59;30.80;99.90
47618;DHT22;33336;36.728;-4.414;2023-08-24T11:03:04;30.40;99.90
47618;DHT22;33336;36.728;-4.414;2023-08-24T11:08:06;31.50;99.90
47618;DHT22;33336;36.728;-4.414;2023-08-24T11:13:12;31.30;99.90
47618;DHT22;33336;36.728;-4.414;2023-08-24T11:18:27;31.30;99.90
47618;DHT22;33336;36.728;-4.414;2023-08-24T11:23:31;30.50;99.90
47618;DHT22;33336;36.728;-4.414;2023-08-24T11:28:33;30.60;99.90
47618;DHT22;33336;36.728;-4.414;2023-08-24T11:33:39;30.70;99.90
47618;DHT22;33336;36.728;-4.414;2023-08-24T11:38:42;30.60;99.90
47618;DHT22;33336;36.728;-4.414;2023-08-24T11:43:47;31.00;99.90
47618;DHT22;33336;36.728;-4.414;2023-08-24T11:48:53;31.00;99.90
47618;DHT22;33336;36.728;-4.414;2023-08-24T11:53:57;30.70;99.90
47618;DHT22;33336;36.728;-4.414;2023-08-24T11:59:01;30.80;99.90
47618;DHT22;33336;36.728;-4.414;2023-08-24T12:04:07;31.20;99.90
47618;DHT22;33336;36.728;-4.414;2023-08-24T12:09:10;32.10;99.90
47618;DHT22;33336;36.728;-4.414;2023-08-24T12:14:17;32.40;99.90
47618;DHT22;33336;36.728;-4.414;2023-08-24T12:19:21;31.30;99.90
47618;DHT22;33336;36.728;-4.414;2023-08-24T12:24:25;31.50;99.90
47618;DHT22;33336;36.728;-4.414;2023-08-24T12:29:28;31.10;99.90
47618;DHT22;33336;36.728;-4.414;2023-08-24T12:34:33;31.40;99.90
47618;DHT22;33336;36.728;-4.414;2023-08-24T12:39:36;31.90;99.90
47618;DHT22;33336;36.728;-4.414;2023-08-24T12:44:39;32.50;99.90
47618;DHT22;33336;36.728;-4.414;2023-08-24T12:49:43;32.30;99.90
47618;DHT22;33336;36.728;-4.414;2023-08-24T12:54:47;33.20;99.90
47618;DHT22;33336;36.728;-4.414;2023-08-24T12:59:50;33.50;99.90
47618;DHT22;33336;36.728;-4.414;2023-08-24T13:04:56;33.60;99.90
47618;DHT22;33336;36.728;-4.414;2023-08-24T13:10:05;33.90;99.90
47618;DHT22;33336;36.728;-4.414;2023-08-24T13:15:10;32.60;99.90
47618;DHT22;33336;36.728;-4.414;2023-08-24T13:20:15;32.40;99.90
47618;DHT22;33336;36.728;-4.414;2023-08-24T13:25:19;32.50;99.90
47618;DHT22;33336;36.728;-4.414;2023-08-24T13:30:22;33.50;99.90
47618;DHT22;33336;36.728;-4.414;2023-08-24T13:35:27;33.70;99.90
47618;DHT22;33336;36.728;-4.414;2023-08-24T13:40:29;33.90;99.90
47618;DHT22;33336;36.728;-4.414;2023-08-24T13:45:33;34.00;99.90
47618;DHT22;33336;36.728;-4.414;2023-08-24T13:50:38;33.80;99.90
47618;DHT22;33336;36.728;-4.414;2023-08-24T13:55:41;33.50;99.90
47618;DHT22;33336;36.728;-4.414;2023-08-24T14:00:47;34.10;99.90
47618;DHT22;33336;36.728;-4.414;2023-08-24T14:05:55;35.40;99.50
47618;DHT22;33336;36.728;-4.414;2023-08-24T14:10:57;34.40;99.00
47618;DHT22;33336;36.728;-4.414;2023-08-24T14:16:01;34.90;98.10
47618;DHT22;33336;36.728;-4.414;2023-08-24T14:21:06;35.30;98.20
47618;DHT22;33336;36.728;-4.414;2023-08-24T14:26:09;35.30;96.10
47618;DHT22;33336;36.728;-4.414;2023-08-24T14:31:12;35.50;96.00
47618;DHT22;33336;36.728;-4.414;2023-08-24T14:36:16;35.40;95.70
47618;DHT22;33336;36.728;-4.414;2023-08-24T14:41:19;34.60;97.50
47618;DHT22;33336;36.728;-4.414;2023-08-24T14:46:22;34.90;94.40
47618;DHT22;33336;36.728;-4.414;2023-08-24T14:51:26;35.40;94.60
47618;DHT22;33336;36.728;-4.414;2023-08-24T14:56:30;36.00;94.30
47618;DHT22;33336;36.728;-4.414;2023-08-24T15:01:58;36.00;94.30
47618;DHT22;33336;36.728;-4.414;2023-08-24T15:07:04;36.60;93.20
47618;DHT22;33336;36.728;-4.414;2023-08-24T15:12:07;36.00;94.00
47618;DHT22;33336;36.728;-4.414;2023-08-24T15:17:10;34.90;95.10
47618;DHT22;33336;36.728;-4.414;2023-08-24T15:22:14;35.40;94.80
47618;DHT22;33336;36.728;-4.414;2023-08-24T15:27:17;35.20;94.50
47618;DHT22;33336;36.728;-4.414;2023-08-24T15:32:21;35.20;95.10
47618;DHT22;33336;36.728;-4.414;2023-08-24T15:37:25;36.20;93.80
47618;DHT22;33336;36.728;-4.414;2023-08-24T15:42:28;37.60;93.50
47618;DHT22;33336;36.728;-4.414;2023-08-24T15:47:32;37.50;91.80
47618;DHT22;33336;36.728;-4.414;2023-08-24T15:52:37;37.10;93.70
47618;DHT22;33336;36.728;-4.414;2023-08-24T15:57:40;37.50;91.90
47618;DHT22;33336;36.728;-4.414;2023-08-24T16:02:43;38.50;92.20
47618;DHT22;33336;36.728;-4.414;2023-08-24T16:07:47;37.70;91.40
47618;DHT22;33336;36.728;-4.414;2023-08-24T16:12:50;36.60;92.20
47618;DHT22;33336;36.728;-4.414;2023-08-24T16:17:53;38.90;91.30
47618;DHT22;33336;36.728;-4.414;2023-08-24T16:22:57;40.60;90.70
47618;DHT22;33336;36.728;-4.414;2023-08-24T16:28:00;40.90;88.20
47618;DHT22;33336;36.728;-4.414;2023-08-24T16:33:04;41.80;87.80
47618;DHT22;33336;36.728;-4.414;2023-08-24T16:38:11;42.60;86.20
47618;DHT22;33336;36.728;-4.414;2023-08-24T16:43:13;42.20;85.60
47618;DHT22;33336;36.728;-4.414;2023-08-24T16:48:19;43.40;84.40
47618;DHT22;33336;36.728;-4.414;2023-08-24T16:53:23;43.70;82.80
47618;DHT22;33336;36.728;-4.414;2023-08-24T16:58:27;43.10;80.90
47618;DHT22;33336;36.728;-4.414;2023-08-24T17:03:31;42.70;82.70
47618;DHT22;33336;36.728;-4.414;2023-08-24T17:08:35;44.60;81.30
47618;DHT22;33336;36.728;-4.414;2023-08-24T17:13:38;45.70;82.00
47618;DHT22;33336;36.728;-4.414;2023-08-24T17:18:41;46.10;79.90
47618;DHT22;33336;36.728;-4.414;2023-08-24T17:23:46;45.40;77.70
47618;DHT22;33336;36.728;-4.414;2023-08-24T17:28:49;47.40;77.60
47618;DHT22;33336;36.728;-4.414;2023-08-24T17:33:52;47.30;74.80
47618;DHT22;33336;36.728;-4.414;2023-08-24T17:38:57;46.60;76.30
47618;DHT22;33336;36.728;-4.414;2023-08-24T17:44:00;47.30;76.70
47618;DHT22;33336;36.728;-4.414;2023-08-24T17:49:04;46.50;75.60
47618;DHT22;33336;36.728;-4.414;2023-08-24T17:54:08;45.80;75.80
47618;DHT22;33336;36.728;-4.414;2023-08-24T17:59:11;46.90;74.80
47618;DHT22;33336;36.728;-4.414;2023-08-24T18:04:13;46.10;74.70
47618;DHT22;33336;36.728;-4.414;2023-08-24T18:09:18;46.50;74.60
47618;DHT22;33336;36.728;-4.414;2023-08-24T18:14:20;45.80;74.40
47618;DHT22;33336;36.728;-4.414;2023-08-24T18:19:24;45.20;75.40
47618;DHT22;33336;36.728;-4.414;2023-08-24T18:24:28;44.90;75.80
47618;DHT22;33336;36.728;-4.414;2023-08-24T18:29:31;44.10;76.80
47618;DHT22;33336;36.728;-4.414;2023-08-24T18:34:34;42.60;77.20
47618;DHT22;33336;36.728;-4.414;2023-08-24T18:39:38;42.40;78.10
47618;DHT22;33336;36.728;-4.414;2023-08-24T18:44:43;41.30;79.10
47618;DHT22;33336;36.728;-4.414;2023-08-24T18:49:46;40.80;79.80
47618;DHT22;33336;36.728;-4.414;2023-08-24T18:54:50;38.90;82.00
47618;DHT22;33336;36.728;-4.414;2023-08-24T18:59:53;38.30;82.70
47618;DHT22;33336;36.728;-4.414;2023-08-24T19:04:56;38.00;84.40
47618;DHT22;33336;36.728;-4.414;2023-08-24T19:10:00;37.30;85.90
47618;DHT22;33336;36.728;-4.414;2023-08-24T19:15:04;36.90;86.90
47618;DHT22;33336;36.728;-4.414;2023-08-24T19:20:08;36.80;86.80
47618;DHT22;33336;36.728;-4.414;2023-08-24T19:25:12;36.40;87.60
47618;DHT22;33336;36.728;-4.414;2023-08-24T19:30:15;36.00;88.80
47618;DHT22;33336;36.728;-4.414;2023-08-24T19:35:18;35.70;89.50
47618;DHT22;33336;36.728;-4.414;2023-08-24T19:40:23;35.40;90.20
47618;DHT22;33336;36.728;-4.414;2023-08-24T19:45:25;35.10;90.50
47618;DHT22;33336;36.728;-4.414;2023-08-24T19:50:29;34.80;90.80
47618;DHT22;33336;36.728;-4.414;2023-08-24T19:55:34;34.80;90.00
47618;DHT22;33336;36.728;-4.414;2023-08-24T20:00:37;34.40;90.20
47618;DHT22;33336;36.728;-4.414;2023-08-24T20:05:40;34.40;90.40
47618;DHT22;33336;36.728;-4.414;2023-08-24T20:10:44;34.30;90.30
47618;DHT22;33336;36.728;-4.414;2023-08-24T20:15:47;34.30;90.40
47618;DHT22;33336;36.728;-4.414;2023-08-24T20:20:50;34.10;90.60
47618;DHT22;33336;36.728;-4.414;2023-08-24T20:25:55;34.10;91.00
47618;DHT22;33336;36.728;-4.414;2023-08-24T20:30:58;34.00;91.10
47618;DHT22;33336;36.728;-4.414;2023-08-24T20:36:01;33.90;91.50
47618;DHT22;33336;36.728;-4.414;2023-08-24T20:41:05;32.60;92.80
47618;DHT22;33336;36.728;-4.414;2023-08-24T20:46:08;32.90;92.60
47618;DHT22;33336;36.728;-4.414;2023-08-24T20:51:11;33.10;92.30
47618;DHT22;33336;36.728;-4.414;2023-08-24T20:56:16;32.80;92.20
47618;DHT22;33336;36.728;-4.414;2023-08-24T21:01:19;33.10;91.50
47618;DHT22;33336;36.728;-4.414;2023-08-24T21:06:22;32.80;90.40
47618;DHT22;33336;36.728;-4.414;2023-08-24T21:11:26;32.90;90.00
47618;DHT22;33336;36.728;-4.414;2023-08-24T21:16:29;32.90;88.60
47618;DHT22;33336;36.728;-4.414;2023-08-24T21:21:32;32.80;87.70
47618;DHT22;33336;36.728;-4.414;2023-08-24T21:26:41;32.90;86.90
47618;DHT22;33336;36.728;-4.414;2023-08-24T21:31:44;32.70;87.40
47618;DHT22;33336;36.728;-4.414;2023-08-24T21:36:47;32.50;87.90
47618;DHT22;33336;36.728;-4.414;2023-08-24T21:41:51;32.30;88.70
47618;DHT22;33336;36.728;-4.414;2023-08-24T21:46:54;32.50;87.90
47618;DHT22;33336;36.728;-4.414;2023-08-24T21:51:57;32.40;87.10
47618;DHT22;33336;36.728;-4.414;2023-08-24T21:57:02;32.30;87.20
47618;DHT22;33336;36.728;-4.414;2023-08-24T22:02:05;31.90;87.80
47618;DHT22;33336;36.728;-4.414;2023-08-24T22:07:08;32.20;87.30
47618;DHT22;33336;36.728;-4.414;2023-08-24T22:12:13;32.10;86.90
47618;DHT22;33336;36.728;-4.414;2023-08-24T22:17:16;32.00;86.60
47618;DHT22;33336;36.728;-4.414;2023-08-24T22:22:20;31.90;86.50
47618;DHT22;33336;36.728;-4.414;2023-08-24T22:27:24;32.00;86.20
47618;DHT22;33336;36.728;-4.414;2023-08-24T22:32:28;32.10;86.10
47618;DHT22;33336;36.728;-4.414;2023-08-24T22:37:31;32.00;85.20
47618;DHT22;33336;36.728;-4.414;2023-08-24T22:42:35;31.80;85.20
47618;DHT22;33336;36.728;-4.414;2023-08-24T22:47:38;31.60;85.20
47618;DHT22;33336;36.728;-4.414;2023-08-24T22:52:41;31.60;84.70
47618;DHT22;33336;36.728;-4.414;2023-08-24T22:57:46;31.70;84.40
47618;DHT22;33336;36.728;-4.414;2023-08-24T23:02:49;31.40;84.10
47618;DHT22;33336;36.728;-4.414;2023-08-24T23:07:52;31.40;83.90
47618;DHT22;33336;36.728;-4.414;2023-08-24T23:12:56;31.00;84.70
47618;DHT22;33336;36.728;-4.414;2023-08-24T23:17:59;30.70;84.50
47618;DHT22;33336;36.728;-4.414;2023-08-24T23:23:03;30.30;85.00
47618;DHT22;33336;36.728;-4.414;2023-08-24T23:28:07;30.10;85.60
47618;DHT22;33336;36.728;-4.414;2023-08-24T23:33:10;30.30;84.50
47618;DHT22;33336;36.728;-4.414;2023-08-24T23:38:15;30.60;83.30
47618;DHT22;33336;36.728;-4.414;2023-08-24T23:43:19;30.80;83.10
47618;DHT22;33336;36.728;-4.414;2023-08-24T23:48:22;30.40;83.30
47618;DHT22;33336;36.728;-4.414;2023-08-24T23:53:26;30.30;83.60
47618;DHT22;33336;36.728;-4.414;2023-08-24T23:58:31;30.30;83.20
